Flight Track Log - Related Links

Times and Time Zones

All times are in EDT time to prevent confusion due to time zone crossing. See the CTL15 flight status page for this flight to view local times or setup timezone preferences in your user account.

Time Position Orientation Groundspeed Altitude Reporting Facility
EDT Latitude Longitude Course Direction KTS MPH feet Rate Location/Type
Thu 07:55:13 PM 39.6481 -84.1564 53° Northeast 130 150 3,000  Level Indianapolis Center
Thu 07:56:01 PM 39.6636 -84.1292 53° Northeast 119 137 3,900 881 Climbing Indianapolis Center
Thu 07:57:02 PM 39.6878 -84.0981 45° Northeast 117 135 4,600 738 Climbing Indianapolis Center
Thu 07:58:03 PM 39.7125 -84.0642 47° Northeast 123 142 5,400 639 Climbing Indianapolis Center
Thu 07:59:04 PM 39.7367 -84.0331 45° Northeast 131 151 5,900 541 Climbing Indianapolis Center
Thu 08:00:05 PM 39.7658 -83.9972 43° Northeast 139 160 6,500 541 Climbing Indianapolis Center
Thu 08:01:06 PM 39.7967 -83.9619 41° Northeast 144 166 7,000 295 Climbing Indianapolis Center
Thu 08:02:07 PM 39.8281 -83.9236 43° Northeast 163 188 7,100 49 Climbing Indianapolis Center
Thu 08:03:08 PM 39.8644 -83.8781 44° Northeast 175 201 7,100  Level Indianapolis Center
Thu 08:04:09 PM 39.9003 -83.8353 42° Northeast 176 203 7,100  Level Indianapolis Center
Thu 08:05:10 PM 39.9344 -83.7892 46° Northeast 173 199 7,100  Level Indianapolis Center
Thu 08:06:10 PM 39.9703 -83.7461 43° Northeast 174 200 7,100  Level Indianapolis Center
Thu 08:07:11 PM 40.0025 -83.6997 48° Northeast 173 199 7,100  Level Indianapolis Center
Thu 08:08:12 PM 40.0386 -83.6542 44° Northeast 172 198 7,100  Level Indianapolis Center
Thu 08:09:13 PM 40.0706 -83.6075 48° Northeast 173 199 7,100  Level Indianapolis Center
Thu 08:10:14 PM 40.1047 -83.5614 46° Northeast 171 197 7,100  Level Indianapolis Center
Thu 08:11:15 PM 40.1386 -83.5178 45° Northeast 171 197 7,100  Level Indianapolis Center
Thu 08:12:16 PM 40.1700 -83.4764 45° Northeast 163 188 7,100  Level Indianapolis Center
Thu 08:13:17 PM 40.2017 -83.4325 47° Northeast 163 188 7,100 -49 Level Indianapolis Center
Thu 08:14:18 PM 40.2331 -83.3911 45° Northeast 159 183 7,000  Descending Indianapolis Center
Thu 08:15:18 PM 40.2647 -83.3469 47° Northeast 159 183 7,100  Climbing Indianapolis Center
Thu 08:16:19 PM 40.2961 -83.3056 45° Northeast 156 180 7,000 -66 Descending Indianapolis Center
Thu 08:16:49 PM 40.3083 -83.2903 44° Northeast 159 183 7,000 66 Level Indianapolis Center
Thu 08:17:50 PM 40.3403 -83.2511 43° Northeast 156 180 7,100 49 Climbing Indianapolis Center
Thu 08:18:52 PM 40.3719 -83.2117 43° Northeast 154 177 7,100  Level Indianapolis Center
Thu 08:19:54 PM 40.4047 -83.1756 40° Northeast 153 176 7,100  Level Indianapolis Center
Thu 08:20:55 PM 40.4433 -83.1306 42° Northeast 156 180 7,100  Level Indianapolis Center
Thu 08:21:57 PM 40.4744 -83.0894 45° Northeast 156 180 7,100  Level Indianapolis Center
Thu 08:22:59 PM 40.5106 -83.0586 33° Northeast 154 177 7,100  Level Indianapolis Center
Thu 08:24:00 PM 40.5489 -83.0311 29° Northeast 153 176 7,100  Level Indianapolis Center
Thu 08:25:02 PM 40.5842 -82.9997 34° Northeast 153 176 7,100  Level Indianapolis Center
Thu 08:26:04 PM 40.6203 -82.9678 34° Northeast 153 176 7,100  Level Indianapolis Center
Thu 08:27:05 PM 40.6578 -82.9378 31° Northeast 156 180 7,100  Level Indianapolis Center
Thu 08:28:07 PM 40.6942 -82.9081 32° Northeast 154 177 7,100  Level Indianapolis Center
Thu 08:29:09 PM 40.7322 -82.8792 30° Northeast 155 178 7,100  Level Indianapolis Center
Thu 08:30:11 PM 40.7697 -82.8500 30° Northeast 155 178 7,100  Level Indianapolis Center
Thu 08:31:12 PM 40.8067 -82.8181 33° Northeast 156 180 7,100  Level Indianapolis Center

Login

Don't have an account? Register now (free) for customized features, flight alerts, and more!